createdAt,value
2018-09-23T00:02:17.276Z,16.00
2018-09-23T00:04:49.224Z,16.53
2018-09-23T00:07:21.011Z,16.90
2018-09-23T00:09:52.231Z,16.50
2018-09-23T00:12:24.153Z,16.23
2018-09-23T00:14:55.596Z,15.70
2018-09-23T00:17:27.285Z,16.87
2018-09-23T00:19:58.891Z,21.10
2018-09-23T00:22:30.203Z,22.30
2018-09-23T00:25:01.505Z,25.70
2018-09-23T00:27:32.604Z,29.07
2018-09-23T00:30:04.238Z,30.67
2018-09-23T00:32:35.667Z,27.73
2018-09-23T00:35:06.975Z,23.37
2018-09-23T00:37:38.243Z,22.53
2018-09-23T00:40:09.598Z,26.27
2018-09-23T00:42:40.627Z,23.97
2018-09-23T00:45:11.990Z,24.20
2018-09-23T00:47:43.331Z,23.93
2018-09-23T00:50:14.385Z,24.40
2018-09-23T00:52:45.766Z,24.90
2018-09-23T00:55:17.289Z,25.37
2018-09-23T00:57:48.438Z,24.53
2018-09-23T01:00:19.861Z,23.90
2018-09-23T01:02:50.256Z,27.07
2018-09-23T01:05:22.046Z,26.10
2018-09-23T01:07:53.396Z,26.93
2018-09-23T01:10:24.764Z,25.50
2018-09-23T01:12:56.340Z,25.30
2018-09-23T01:15:27.568Z,23.30
2018-09-23T01:17:58.956Z,22.37
2018-09-23T01:20:29.600Z,23.37
2018-09-23T01:23:01.034Z,22.40
2018-09-23T01:25:31.910Z,21.37
2018-09-23T01:28:03.083Z,19.73
2018-09-23T01:30:34.927Z,19.47
2018-09-23T01:33:05.623Z,19.03
2018-09-23T01:35:37.528Z,18.13
2018-09-23T01:38:09.100Z,18.33
2018-09-23T01:40:40.773Z,17.97
2018-09-23T01:43:11.961Z,18.70
2018-09-23T01:45:42.834Z,17.70
2018-09-23T01:48:14.203Z,16.60
2018-09-23T01:50:45.095Z,15.93
2018-09-23T01:53:16.484Z,16.30
2018-09-23T01:55:47.285Z,16.50
2018-09-23T01:58:18.690Z,16.63
2018-09-23T02:00:49.591Z,15.93
2018-09-23T02:03:21.113Z,16.63
2018-09-23T02:05:52.522Z,16.00
2018-09-23T02:08:24.032Z,15.60
2018-09-23T02:10:55.100Z,15.37
2018-09-23T02:13:26.353Z,15.57
2018-09-23T02:15:57.225Z,15.37
2018-09-23T02:18:28.836Z,14.40
2018-09-23T02:20:59.724Z,14.10
2018-09-23T02:23:31.166Z,13.23
2018-09-23T02:26:02.425Z,12.77
2018-09-23T02:28:33.286Z,13.90
2018-09-23T02:31:04.845Z,12.50
2018-09-23T02:33:35.119Z,12.70
2018-09-23T02:36:06.631Z,12.20
2018-09-23T02:38:37.614Z,13.80
2018-09-23T02:41:08.708Z,13.47
2018-09-23T02:43:40.392Z,14.07
2018-09-23T02:46:12.157Z,20.67
2018-09-23T02:48:43.953Z,16.97
2018-09-23T02:51:15.192Z,16.43
2018-09-23T02:53:46.065Z,15.07
2018-09-23T02:56:17.310Z,14.20
2018-09-23T02:58:49.418Z,16.27
2018-09-23T03:01:21.081Z,15.43
2018-09-23T03:03:51.923Z,17.40
2018-09-23T03:06:23.097Z,17.60
2018-09-23T03:08:54.607Z,19.57
2018-09-23T03:11:26.176Z,19.60
2018-09-23T03:13:57.065Z,19.23
2018-09-23T03:16:28.357Z,21.27
2018-09-23T03:18:59.773Z,20.20
2018-09-23T03:21:30.461Z,20.20
2018-09-23T03:24:02.053Z,19.80
2018-09-23T03:26:33.096Z,17.73
2018-09-23T03:29:04.618Z,18.40
2018-09-23T03:31:35.994Z,20.63
2018-09-23T03:34:07.080Z,20.73
2018-09-23T03:36:38.471Z,20.77
2018-09-23T03:39:09.883Z,20.47
2018-09-23T03:41:41.370Z,22.60
2018-09-23T03:44:12.992Z,21.40
2018-09-23T03:46:44.761Z,21.33
2018-09-23T03:49:16.734Z,20.90
2018-09-23T03:51:47.548Z,21.60
2018-09-23T03:54:18.594Z,20.93
2018-09-23T03:56:50.196Z,22.10
2018-09-23T03:59:22.519Z,25.27
2018-09-23T04:01:52.804Z,22.07
2018-09-23T04:04:23.671Z,24.07
2018-09-23T04:06:55.012Z,24.60
2018-09-23T04:09:26.933Z,24.70
2018-09-23T04:11:57.564Z,26.47
2018-09-23T04:14:27.770Z,25.30
2018-09-23T04:16:57.671Z,23.90
2018-09-23T04:19:27.937Z,25.67
2018-09-23T04:21:58.057Z,25.53
2018-09-23T04:24:28.391Z,24.97
2018-09-23T04:26:58.630Z,23.93
2018-09-23T04:29:28.810Z,24.00
2018-09-23T04:31:58.848Z,23.90
2018-09-23T04:34:28.967Z,25.10
2018-09-23T04:36:58.992Z,22.97
2018-09-23T04:39:29.530Z,24.60
2018-09-23T04:41:59.747Z,24.03
2018-09-23T04:44:29.951Z,23.83
2018-09-23T04:46:59.968Z,23.60
2018-09-23T04:49:30.149Z,22.90
2018-09-23T04:52:00.310Z,23.57
2018-09-23T04:54:30.695Z,23.43
2018-09-23T04:57:00.736Z,22.97
2018-09-23T04:59:31.322Z,23.73
2018-09-23T05:02:01.512Z,24.43
2018-09-23T05:04:31.906Z,23.17
2018-09-23T05:07:01.945Z,22.00
2018-09-23T05:09:32.425Z,25.87
2018-09-23T05:12:02.606Z,27.87
2018-09-23T05:14:33.228Z,25.53
2018-09-23T05:17:04.875Z,23.13
2018-09-23T05:19:35.450Z,22.63
2018-09-23T05:22:06.314Z,22.97
2018-09-23T05:24:37.065Z,23.37
2018-09-23T05:27:08.162Z,22.60
2018-09-23T05:29:38.785Z,22.77
2018-09-23T05:32:09.127Z,21.97
2018-09-23T05:34:40.700Z,22.57
2018-09-23T05:37:11.276Z,22.20
2018-09-23T05:39:41.464Z,23.13
2018-09-23T05:42:11.814Z,23.57
2018-09-23T05:44:42.058Z,23.73
2018-09-23T05:47:12.633Z,22.70
2018-09-23T05:49:44.003Z,23.30
2018-09-23T05:52:15.974Z,24.30
2018-09-23T05:54:46.638Z,25.90
2018-09-23T05:57:16.952Z,25.43
2018-09-23T05:59:47.099Z,29.17
2018-09-23T06:13:46.157Z,21.07
2018-09-23T06:16:16.299Z,19.37
2018-09-23T06:18:46.477Z,16.23
2018-09-23T06:21:16.498Z,15.87
2018-09-23T06:23:46.721Z,16.10
2018-09-23T06:26:17.279Z,15.63
2018-09-23T06:28:47.801Z,16.53
2018-09-23T06:31:18.815Z,14.83
2018-09-23T06:33:49.175Z,15.47
2018-09-23T06:36:19.620Z,13.67
2018-09-23T06:38:49.831Z,14.50
2018-09-23T06:41:20.421Z,14.40
2018-09-23T06:43:50.877Z,14.40
2018-09-23T06:46:21.209Z,14.23
2018-09-23T06:48:51.886Z,12.83
2018-09-23T06:51:22.385Z,12.27
2018-09-23T06:53:53.205Z,12.20
2018-09-23T06:56:23.530Z,12.07
2018-09-23T06:58:53.816Z,11.43
2018-09-23T07:01:24.058Z,11.90
2018-09-23T07:03:54.504Z,12.63
2018-09-23T07:06:24.811Z,12.03
2018-09-23T07:08:55.048Z,14.03
2018-09-23T07:11:25.445Z,13.40
2018-09-23T07:13:55.542Z,13.93
2018-09-23T07:16:26.244Z,13.50
2018-09-23T07:18:56.362Z,15.37
2018-09-23T07:21:26.769Z,13.53
2018-09-23T07:23:57.517Z,14.90
2018-09-23T07:26:27.625Z,16.23
2018-09-23T07:28:57.815Z,15.63
2018-09-23T07:31:28.048Z,16.33
2018-09-23T07:33:58.395Z,17.83
2018-09-23T07:36:28.933Z,18.57
2018-09-23T07:38:58.884Z,19.03
2018-09-23T07:41:28.872Z,19.90
2018-09-23T07:43:58.824Z,20.63
2018-09-23T07:46:28.868Z,19.60
2018-09-23T07:48:58.988Z,20.77
2018-09-23T07:51:29.017Z,19.50
2018-09-23T07:53:59.289Z,19.77
2018-09-23T07:56:29.692Z,19.43
2018-09-23T07:58:59.652Z,20.77
2018-09-23T08:01:29.564Z,26.87
2018-09-23T08:03:59.732Z,20.10
2018-09-23T08:06:29.719Z,19.43
2018-09-23T08:08:59.531Z,19.13
2018-09-23T08:11:29.751Z,18.10
2018-09-23T08:14:00.183Z,19.03
2018-09-23T08:16:30.121Z,18.60
2018-09-23T08:19:00.013Z,18.83
2018-09-23T08:21:29.690Z,18.53
2018-09-23T08:24:05.017Z,17.57
2018-09-23T08:26:39.977Z,18.47
2018-09-23T08:29:10.252Z,18.43
2018-09-23T08:31:40.385Z,18.43
2018-09-23T08:34:10.707Z,17.67
2018-09-23T08:36:40.823Z,17.17
2018-09-23T08:39:10.752Z,17.40
2018-09-23T08:41:40.624Z,16.80
2018-09-23T08:44:10.787Z,17.63
2018-09-23T08:46:40.775Z,17.57
2018-09-23T08:49:10.728Z,16.60
2018-09-23T08:51:41.127Z,18.03
2018-09-23T08:54:11.379Z,17.67
2018-09-23T08:56:41.274Z,17.70
2018-09-23T08:59:11.285Z,18.07
2018-09-23T09:01:41.089Z,17.73
2018-09-23T09:04:11.219Z,18.83
2018-09-23T09:06:41.331Z,18.33
2018-09-23T09:09:11.363Z,18.60
2018-09-23T09:11:41.520Z,17.90
2018-09-23T09:14:12.824Z,17.87
2018-09-23T09:16:43.047Z,18.30
2018-09-23T09:19:12.794Z,18.97
2018-09-23T09:21:42.824Z,19.27
2018-09-23T09:24:12.670Z,18.83
2018-09-23T09:26:42.545Z,18.90
2018-09-23T09:29:12.348Z,18.73
2018-09-23T09:31:42.329Z,18.83
2018-09-23T09:34:12.321Z,18.10
2018-09-23T09:36:42.307Z,18.30
2018-09-23T09:39:12.589Z,17.83
2018-09-23T09:41:42.355Z,19.35
2018-09-23T09:44:12.369Z,19.30
2018-09-23T09:46:42.422Z,18.25
2018-09-23T09:49:12.213Z,17.85
2018-09-23T09:51:42.257Z,17.27
2018-09-23T09:54:12.179Z,16.93
2018-09-23T09:56:42.154Z,17.65
2018-09-23T09:59:12.052Z,17.85
2018-09-23T10:01:41.774Z,18.25
2018-09-23T10:04:11.939Z,16.80
2018-09-23T10:06:41.813Z,16.37
2018-09-23T10:09:12.205Z,16.57
2018-09-23T10:11:42.153Z,15.20
2018-09-23T10:14:12.129Z,14.53
2018-09-23T10:16:42.073Z,13.53
2018-09-23T10:19:11.881Z,14.95
2018-09-23T10:21:41.682Z,14.10
2018-09-23T10:24:11.514Z,14.60
2018-09-23T10:26:41.324Z,14.63
2018-09-23T10:29:11.175Z,15.65
2018-09-23T10:31:41.075Z,15.20
2018-09-23T10:34:10.905Z,16.75
2018-09-23T10:36:40.715Z,16.05
2018-09-23T10:39:11.167Z,15.35
2018-09-23T10:41:40.957Z,15.43
2018-09-23T10:44:10.833Z,15.18
2018-09-23T10:46:40.699Z,15.40
2018-09-23T10:49:10.466Z,14.95
2018-09-23T10:51:40.342Z,13.45
2018-09-23T10:54:10.223Z,13.80
2018-09-23T10:56:40.389Z,13.48
2018-09-23T10:59:10.920Z,14.07
2018-09-23T11:01:41.169Z,14.75
2018-09-23T11:04:11.962Z,16.32
2018-09-23T11:06:42.160Z,13.30
2018-09-23T11:09:12.156Z,13.70
2018-09-23T11:11:42.235Z,13.03
2018-09-23T11:14:12.095Z,13.13
2018-09-23T11:16:42.437Z,13.25
2018-09-23T11:19:12.280Z,12.25
2018-09-23T11:21:42.329Z,12.33
2018-09-23T11:24:12.417Z,12.47
2018-09-23T11:26:42.426Z,12.60
2018-09-23T11:29:12.543Z,12.18
2018-09-23T11:31:42.781Z,12.05
2018-09-23T11:34:12.969Z,12.78
2018-09-23T11:36:43.315Z,12.65
2018-09-23T11:39:13.749Z,12.03
2018-09-23T11:41:43.653Z,11.73
2018-09-23T11:44:13.652Z,11.25
2018-09-23T11:46:44.181Z,13.75
2018-09-23T11:49:14.337Z,12.58
2018-09-23T11:51:44.439Z,10.72
2018-09-23T11:54:14.385Z,11.30
2018-09-23T11:56:44.578Z,11.08
2018-09-23T11:59:14.549Z,10.70
2018-09-23T12:01:44.404Z,10.93
2018-09-23T12:04:14.455Z,10.95
2018-09-23T12:06:44.307Z,12.00
2018-09-23T12:09:14.199Z,10.90
2018-09-23T12:11:44.119Z,11.00
2018-09-23T12:14:14.099Z,11.10
2018-09-23T12:16:44.073Z,10.98
2018-09-23T12:19:14.176Z,11.10
2018-09-23T12:21:44.196Z,11.10
2018-09-23T12:24:14.366Z,11.38
2018-09-23T12:26:44.352Z,11.45
2018-09-23T12:29:14.575Z,11.73
2018-09-23T12:31:44.647Z,11.18
2018-09-23T12:34:14.713Z,11.35
2018-09-23T12:36:44.885Z,11.15
2018-09-23T12:39:14.785Z,11.18
2018-09-23T12:41:45.106Z,11.97
2018-09-23T12:44:15.200Z,10.75
2018-09-23T12:46:45.285Z,12.10
2018-09-23T12:49:15.348Z,10.60
2018-09-23T12:51:45.442Z,11.22
2018-09-23T12:54:15.522Z,11.70
2018-09-23T12:56:45.585Z,10.95
2018-09-23T12:59:15.695Z,10.80
2018-09-23T13:01:45.801Z,10.20
2018-09-23T13:04:15.748Z,10.58
2018-09-23T13:06:45.924Z,10.50
2018-09-23T13:09:15.858Z,10.43
2018-09-23T13:11:45.906Z,10.00
2018-09-23T13:14:16.047Z,10.40
2018-09-23T13:16:46.219Z,10.65
2018-09-23T13:19:16.252Z,10.90
2018-09-23T13:21:46.221Z,10.13
2018-09-23T13:24:16.173Z,10.05
2018-09-23T13:26:46.115Z,10.48
2018-09-23T13:29:16.065Z,10.70
2018-09-23T13:31:45.940Z,11.45
2018-09-23T13:34:15.897Z,10.53
2018-09-23T13:36:45.825Z,10.40
2018-09-23T13:39:15.647Z,11.30
2018-09-23T13:41:45.481Z,11.95
2018-09-23T13:44:15.377Z,11.73
2018-09-23T13:46:45.386Z,11.57
2018-09-23T13:49:15.695Z,10.60
2018-09-23T13:51:45.909Z,12.00
2018-09-23T13:54:16.083Z,11.00
2018-09-23T13:56:46.169Z,11.05
2018-09-23T13:59:16.199Z,10.80
2018-09-23T14:01:46.159Z,11.28
2018-09-23T14:04:16.271Z,11.70
2018-09-23T14:06:46.229Z,11.80
2018-09-23T14:09:16.086Z,12.90
2018-09-23T14:11:45.996Z,11.85
2018-09-23T14:14:15.973Z,11.35
2018-09-23T14:16:46.133Z,12.75
2018-09-23T14:19:16.132Z,13.08
2018-09-23T14:21:46.000Z,11.97
2018-09-23T14:24:16.363Z,13.03
2018-09-23T14:26:46.220Z,12.65
2018-09-23T14:29:16.228Z,13.05
2018-09-23T14:31:46.117Z,12.33
2018-09-23T14:34:15.953Z,12.37
2018-09-23T14:36:45.887Z,12.85
2018-09-23T14:39:15.708Z,13.50
2018-09-23T14:41:45.921Z,12.63
2018-09-23T14:44:16.043Z,12.47
2018-09-23T14:46:46.106Z,12.23
2018-09-23T14:49:16.197Z,11.70
2018-09-23T14:51:46.260Z,11.63
2018-09-23T14:54:16.522Z,11.80
2018-09-23T14:56:46.808Z,11.55
2018-09-23T14:59:16.750Z,12.73
2018-09-23T15:01:46.739Z,12.37
2018-09-23T15:04:16.684Z,10.90
2018-09-23T15:06:46.946Z,11.38
2018-09-23T15:09:17.120Z,11.33
2018-09-23T15:11:47.380Z,10.80
2018-09-23T15:14:17.598Z,11.63
2018-09-23T15:16:47.971Z,12.40
2018-09-23T15:19:17.793Z,11.40
2018-09-23T15:21:47.832Z,11.35
2018-09-23T15:24:17.980Z,11.63
2018-09-23T15:26:48.230Z,11.22
2018-09-23T15:29:18.584Z,11.40
2018-09-23T15:31:48.889Z,11.57
2018-09-23T15:34:19.151Z,11.43
2018-09-23T15:36:49.385Z,11.53
2018-09-23T15:39:19.566Z,12.15
2018-09-23T15:41:49.700Z,11.10
2018-09-23T15:44:20.092Z,10.58
2018-09-23T15:46:49.957Z,11.50
2018-09-23T15:49:19.899Z,10.82
2018-09-23T15:51:49.929Z,11.48
2018-09-23T15:54:19.765Z,11.22
2018-09-23T15:56:49.744Z,10.93
2018-09-23T15:59:19.556Z,11.73
2018-09-23T16:01:50.642Z,11.85
2018-09-23T16:04:20.819Z,11.55
2018-09-23T16:06:51.435Z,11.35
2018-09-23T16:09:21.376Z,11.15
2018-09-23T16:11:51.663Z,11.85
2018-09-23T16:14:21.722Z,11.78
2018-09-23T16:16:51.718Z,11.60
2018-09-23T16:19:22.015Z,12.17
2018-09-23T16:21:51.883Z,11.13
2018-09-23T16:24:21.944Z,11.40
2018-09-23T16:26:51.866Z,11.23
2018-09-23T16:29:21.720Z,11.27
2018-09-23T16:31:51.757Z,10.73
2018-09-23T16:34:21.771Z,11.30
2018-09-23T16:36:51.697Z,10.40
2018-09-23T16:39:21.499Z,11.20
2018-09-23T16:41:51.898Z,12.25
2018-09-23T16:44:22.708Z,11.73
2018-09-23T16:46:52.981Z,10.87
2018-09-23T16:49:22.926Z,11.17
2018-09-23T16:51:53.002Z,10.63
2018-09-23T16:54:22.883Z,10.77
2018-09-23T16:56:52.730Z,10.93
2018-09-23T16:59:22.577Z,10.80
2018-09-23T17:01:52.496Z,10.07
2018-09-23T17:04:22.655Z,10.40
2018-09-23T17:06:52.699Z,10.57
2018-09-23T17:09:22.637Z,10.57
2018-09-23T17:11:52.791Z,10.27
2018-09-23T17:14:22.784Z,10.87
2018-09-23T17:16:53.158Z,10.00
2018-09-23T17:19:23.568Z,10.33
2018-09-23T17:21:53.432Z,9.93
2018-09-23T17:24:23.385Z,10.33
2018-09-23T17:26:53.331Z,10.43
2018-09-23T17:29:23.429Z,10.90
2018-09-23T17:31:53.593Z,11.10
2018-09-23T17:34:24.145Z,10.93
2018-09-23T17:36:54.171Z,12.00
2018-09-23T17:39:24.053Z,12.00
2018-09-23T17:41:54.065Z,12.93
2018-09-23T17:44:24.315Z,12.63
2018-09-23T17:46:54.644Z,11.90
2018-09-23T17:49:24.979Z,12.27
2018-09-23T17:51:55.156Z,12.53
2018-09-23T17:54:25.121Z,12.47
2018-09-23T17:56:55.398Z,13.70
2018-09-23T17:59:25.382Z,12.83
2018-09-23T18:01:56.723Z,12.50
2018-09-23T18:04:26.761Z,14.37
2018-09-23T18:06:57.363Z,13.80
2018-09-23T18:09:27.834Z,14.47
2018-09-23T18:11:58.189Z,15.00
2018-09-23T18:14:28.073Z,16.13
2018-09-23T18:16:58.128Z,17.20
2018-09-23T18:19:28.228Z,15.70
2018-09-23T18:21:58.105Z,15.50
2018-09-23T18:24:28.021Z,14.00
2018-09-23T18:26:58.662Z,13.77
2018-09-23T18:29:29.444Z,12.70
2018-09-23T18:31:59.610Z,12.63
2018-09-23T18:34:29.652Z,12.17
2018-09-23T18:37:00.140Z,11.73
2018-09-23T18:39:30.147Z,12.67
2018-09-23T18:41:59.964Z,11.50
2018-09-23T18:44:29.985Z,11.13
2018-09-23T18:46:59.948Z,10.90
2018-09-23T18:49:30.487Z,10.87
2018-09-23T18:52:00.668Z,10.40
2018-09-23T18:54:35.800Z,10.77
2018-09-23T18:57:06.064Z,10.97
2018-09-23T18:59:35.881Z,10.50
2018-09-23T19:02:06.039Z,11.13
2018-09-23T19:04:36.035Z,10.73
2018-09-23T19:07:05.899Z,11.13
2018-09-23T19:09:35.756Z,10.70
2018-09-23T19:12:06.093Z,11.30
2018-09-23T19:14:36.689Z,10.63
2018-09-23T19:17:06.649Z,10.97
2018-09-23T19:19:41.827Z,10.60
2018-09-23T19:22:17.276Z,10.80
2018-09-23T19:24:47.211Z,10.83
2018-09-23T19:27:17.710Z,11.40
2018-09-23T19:29:48.443Z,11.03
2018-09-23T19:32:18.607Z,10.87
2018-09-23T19:34:48.924Z,11.50
2018-09-23T19:37:18.977Z,11.13
2018-09-23T19:39:48.781Z,10.93
2018-09-23T19:42:18.564Z,10.43
2018-09-23T19:44:48.443Z,10.50
2018-09-23T19:47:18.292Z,10.20
2018-09-23T19:49:48.235Z,10.53
2018-09-23T19:52:18.177Z,10.70
2018-09-23T19:54:48.092Z,10.03
2018-09-23T19:57:17.961Z,10.43
2018-09-23T19:59:47.646Z,11.37
2018-09-23T20:02:17.452Z,11.20
2018-09-23T20:04:47.298Z,11.43
2018-09-23T20:07:17.113Z,11.50
2018-09-23T20:09:46.967Z,11.70
2018-09-23T20:12:16.880Z,11.53
2018-09-23T20:14:46.829Z,12.33
2018-09-23T20:17:16.797Z,12.07
2018-09-23T20:19:46.600Z,13.10
2018-09-23T20:22:16.408Z,13.40
2018-09-23T20:24:46.431Z,13.67
2018-09-23T20:27:16.400Z,14.23
2018-09-23T20:29:46.435Z,12.70
2018-09-23T20:32:16.301Z,12.80
2018-09-23T20:34:46.234Z,13.53
2018-09-23T20:37:16.059Z,12.70
2018-09-23T20:39:45.843Z,14.30
2018-09-23T20:42:15.587Z,14.37
2018-09-23T20:44:45.586Z,13.37
2018-09-23T20:47:15.616Z,13.27
2018-09-23T20:49:45.459Z,13.53
2018-09-23T20:52:15.375Z,14.07
2018-09-23T20:54:45.177Z,13.57
2018-09-23T20:57:15.082Z,13.20
2018-09-23T20:59:44.907Z,14.03
2018-09-23T21:02:14.847Z,14.23
2018-09-23T21:04:44.793Z,13.77
2018-09-23T21:07:14.693Z,14.97
2018-09-23T21:09:44.652Z,14.43
2018-09-23T21:12:14.491Z,14.40
2018-09-23T21:14:44.480Z,14.80
2018-09-23T21:17:14.492Z,15.10
2018-09-23T21:19:44.221Z,15.10
2018-09-23T21:22:13.969Z,15.77
2018-09-23T21:24:43.953Z,15.17
2018-09-23T21:27:13.828Z,16.43
2018-09-23T21:29:43.835Z,16.37
2018-09-23T21:32:14.244Z,16.27
2018-09-23T21:34:45.033Z,17.43
2018-09-23T21:37:15.935Z,16.73
2018-09-23T21:39:46.972Z,16.43
2018-09-23T21:42:17.492Z,16.60
2018-09-23T21:44:47.698Z,16.77
2018-09-23T21:47:17.593Z,17.57
2018-09-23T21:49:48.226Z,16.97
2018-09-23T21:52:18.841Z,16.20
2018-09-23T21:54:49.810Z,17.23
2018-09-23T21:57:20.468Z,18.93
2018-09-23T21:59:51.536Z,19.90
2018-09-23T22:02:22.445Z,20.03
2018-09-23T22:04:52.465Z,18.47
2018-09-23T22:07:23.416Z,20.73
2018-09-23T22:09:54.310Z,20.43
2018-09-23T22:12:25.270Z,21.23
2018-09-23T22:14:56.044Z,21.30
2018-09-23T22:17:26.721Z,20.73
2018-09-23T22:19:57.572Z,21.33
2018-09-23T22:22:29.029Z,21.03
2018-09-23T22:25:00.395Z,21.93
2018-09-23T22:27:31.829Z,22.20
2018-09-23T22:30:03.635Z,21.53
2018-09-23T22:32:35.206Z,21.23
2018-09-23T22:35:07.037Z,21.93
2018-09-23T22:37:38.509Z,22.63
2018-09-23T22:40:10.207Z,22.67
2018-09-23T22:42:41.213Z,22.90
2018-09-23T22:45:12.708Z,22.50
2018-09-23T22:47:43.724Z,22.47
2018-09-23T22:50:15.232Z,22.77
2018-09-23T22:52:46.839Z,21.60
2018-09-23T22:55:18.217Z,22.23
2018-09-23T22:57:49.938Z,22.53
2018-09-23T23:00:21.043Z,22.40
2018-09-23T23:02:52.550Z,22.07
2018-09-23T23:05:24.413Z,21.93
2018-09-23T23:07:56.740Z,22.33
2018-09-23T23:10:28.256Z,21.43
2018-09-23T23:12:59.595Z,22.57
2018-09-23T23:15:31.088Z,20.33
2018-09-23T23:18:01.723Z,21.23
2018-09-23T23:20:32.950Z,21.70
2018-09-23T23:23:04.405Z,21.23
2018-09-23T23:25:35.343Z,21.30
2018-09-23T23:28:06.269Z,22.70
2018-09-23T23:30:37.837Z,21.37
2018-09-23T23:33:09.220Z,21.63
2018-09-23T23:35:40.894Z,21.50
2018-09-23T23:38:12.572Z,21.30
2018-09-23T23:40:44.242Z,22.47
2018-09-23T23:43:15.945Z,22.00
2018-09-23T23:45:47.578Z,21.93
2018-09-23T23:48:18.792Z,22.27
2018-09-23T23:50:49.840Z,21.63
2018-09-23T23:53:20.689Z,21.37
2018-09-23T23:55:52.236Z,22.07
2018-09-23T23:58:24.002Z,21.97
